createdAt,value
2017-12-22T00:02:16.335Z,101041.08
2017-12-22T00:04:42.691Z,101031.29
2017-12-22T00:07:09.058Z,101033.66
2017-12-22T00:09:35.433Z,101033.22
2017-12-22T00:12:01.781Z,101029.87
2017-12-22T00:14:28.122Z,101023.37
2017-12-22T00:16:54.663Z,101016.08
2017-12-22T00:19:21.073Z,101009.33
2017-12-22T00:21:47.423Z,101016.72
2017-12-22T00:24:13.817Z,101026.36
2017-12-22T00:26:40.146Z,101031.04
2017-12-22T00:29:06.498Z,101030.03
2017-12-22T00:31:32.925Z,101032.81
2017-12-22T00:33:59.311Z,101035.41
2017-12-22T00:36:25.719Z,101031.42
2017-12-22T00:38:52.113Z,101029.73
2017-12-22T00:41:18.521Z,101022.14
2017-12-22T00:43:44.892Z,101013.20
2017-12-22T00:46:11.280Z,101009.02
2017-12-22T00:48:37.600Z,101012.83
2017-12-22T00:51:03.941Z,101027.69
2017-12-22T00:53:30.305Z,101019.48
2017-12-22T00:55:56.655Z,101009.19
2017-12-22T00:58:23.026Z,101003.56
2017-12-22T01:00:49.421Z,101012.34
2017-12-22T01:03:15.790Z,101012.48
2017-12-22T01:05:42.134Z,101013.00
2017-12-22T01:08:08.542Z,101016.03
2017-12-22T01:10:34.889Z,101013.55
2017-12-22T01:13:01.233Z,101011.12
2017-12-22T01:15:33.721Z,101013.89
2017-12-22T01:18:06.128Z,101013.33
2017-12-22T01:20:32.456Z,101013.64
2017-12-22T01:22:58.837Z,101009.95
2017-12-22T01:25:25.168Z,100996.64
2017-12-22T01:27:51.497Z,101007.61
2017-12-22T01:30:17.874Z,101013.01
2017-12-22T01:32:44.205Z,101005.53
2017-12-22T01:35:10.581Z,100996.05
2017-12-22T01:37:36.946Z,100994.33
2017-12-22T01:40:03.309Z,100993.03
2017-12-22T01:42:29.657Z,100981.38
2017-12-22T01:44:56.020Z,100988.59
2017-12-22T01:47:22.357Z,100998.94
2017-12-22T01:49:48.701Z,100991.33
2017-12-22T01:52:15.089Z,100985.58
2017-12-22T01:54:41.413Z,100985.05
2017-12-22T01:57:07.731Z,100992.17
2017-12-22T01:59:34.094Z,100990.63
2017-12-22T02:02:00.449Z,100987.71
2017-12-22T02:04:26.773Z,100998.23
2017-12-22T02:06:53.198Z,100999.06
2017-12-22T02:09:19.533Z,100992.84
2017-12-22T02:11:45.854Z,100991.24
2017-12-22T02:14:12.287Z,100990.89
2017-12-22T02:16:38.624Z,100978.59
2017-12-22T02:19:05.005Z,100980.79
2017-12-22T02:21:31.379Z,100983.91
2017-12-22T02:23:57.708Z,100979.70
2017-12-22T02:26:24.056Z,100988.72
2017-12-22T02:28:50.433Z,100987.02
2017-12-22T02:31:16.806Z,100983.28
2017-12-22T02:33:43.138Z,100983.53
2017-12-22T02:36:09.501Z,100982.67
2017-12-22T02:38:35.812Z,100975.63
2017-12-22T02:41:02.150Z,100972.91
2017-12-22T02:43:28.653Z,100971.01
2017-12-22T02:45:54.973Z,100968.75
2017-12-22T02:48:21.289Z,100966.05
2017-12-22T02:50:47.674Z,100962.19
2017-12-22T02:53:14.050Z,100964.77
2017-12-22T02:55:40.401Z,100968.30
2017-12-22T02:58:06.753Z,100970.95
2017-12-22T03:00:33.091Z,100967.20
2017-12-22T03:02:59.473Z,100963.83
2017-12-22T03:05:25.833Z,100950.45
2017-12-22T03:07:52.171Z,100944.47
2017-12-22T03:10:18.510Z,100947.00
2017-12-22T03:12:44.869Z,100945.27
2017-12-22T03:15:11.229Z,100942.71
2017-12-22T03:17:37.566Z,100946.14
2017-12-22T03:20:03.921Z,100942.83
2017-12-22T03:22:30.248Z,100945.03
2017-12-22T03:24:56.596Z,100947.92
2017-12-22T03:27:22.957Z,100940.17
2017-12-22T03:29:49.281Z,100944.16
2017-12-22T03:32:15.626Z,100939.44
2017-12-22T03:34:41.974Z,100938.23
2017-12-22T03:37:08.305Z,100954.64
2017-12-22T03:39:34.662Z,100955.96
2017-12-22T03:42:01.024Z,100950.23
2017-12-22T03:44:27.365Z,100947.69
2017-12-22T03:46:53.692Z,100940.62
2017-12-22T03:49:20.041Z,100954.50
2017-12-22T03:51:46.352Z,100962.42
2017-12-22T03:54:12.726Z,100957.05
2017-12-22T03:56:39.101Z,100958.52
2017-12-22T03:59:05.433Z,100960.91
2017-12-22T04:01:31.757Z,100971.37
2017-12-22T04:03:58.292Z,100978.63
2017-12-22T04:06:24.619Z,100974.78
2017-12-22T04:08:50.937Z,100981.14
2017-12-22T04:11:17.291Z,100988.08
2017-12-22T04:13:43.635Z,100987.61
2017-12-22T04:16:09.953Z,100994.13
2017-12-22T04:18:36.313Z,100996.37
2017-12-22T04:21:02.628Z,100991.44
2017-12-22T04:23:28.949Z,100989.45
2017-12-22T04:25:55.324Z,100978.61
2017-12-22T04:28:21.661Z,100966.06
2017-12-22T04:30:47.983Z,100965.16
2017-12-22T04:33:14.380Z,100965.48
2017-12-22T04:35:40.709Z,100955.77
2017-12-22T04:38:07.044Z,100946.24
2017-12-22T04:40:33.397Z,100949.36
2017-12-22T04:42:59.736Z,100954.62
2017-12-22T04:45:26.085Z,100948.57
2017-12-22T04:47:52.465Z,100941.02
2017-12-22T04:50:18.799Z,100939.59
2017-12-22T04:52:45.129Z,100952.44
2017-12-22T04:55:11.489Z,100958.87
2017-12-22T04:57:37.862Z,100952.11
2017-12-22T05:00:04.192Z,100938.87
2017-12-22T05:02:30.576Z,100934.21
2017-12-22T05:04:56.888Z,100933.67
2017-12-22T05:07:23.221Z,100932.17
2017-12-22T05:09:49.565Z,100933.33
2017-12-22T05:12:15.881Z,100928.67
2017-12-22T05:14:42.217Z,100931.38
2017-12-22T05:17:08.589Z,100940.28
2017-12-22T05:19:34.917Z,100940.23
2017-12-22T05:22:01.254Z,100935.86
2017-12-22T05:24:27.634Z,100931.08
2017-12-22T05:26:53.973Z,100926.83
2017-12-22T05:29:20.293Z,100920.80
2017-12-22T05:31:46.644Z,100932.16
2017-12-22T05:34:12.964Z,100937.80
2017-12-22T05:36:39.292Z,100930.17
2017-12-22T05:39:05.660Z,100921.67
2017-12-22T05:41:31.989Z,100909.23
2017-12-22T05:43:58.338Z,100911.52
2017-12-22T05:46:24.697Z,100915.91
2017-12-22T05:48:51.034Z,100913.84
2017-12-22T05:51:17.363Z,100921.75
2017-12-22T05:53:43.725Z,100933.70
2017-12-22T05:56:10.284Z,100930.72
2017-12-22T05:58:36.633Z,100922.78
2017-12-22T06:01:03.005Z,100913.57
2017-12-22T06:03:29.341Z,100919.93
2017-12-22T06:05:55.678Z,100929.56
2017-12-22T06:08:22.189Z,100922.34
2017-12-22T06:10:48.525Z,100925.73
2017-12-22T06:13:14.861Z,100936.01
2017-12-22T06:15:41.217Z,100943.91
2017-12-22T06:18:07.548Z,100944.80
2017-12-22T06:20:33.929Z,100941.27
2017-12-22T06:23:00.297Z,100931.97
2017-12-22T06:25:26.632Z,100932.02
2017-12-22T06:27:53.006Z,100930.72
2017-12-22T06:30:19.393Z,100935.48
2017-12-22T06:32:45.773Z,100935.86
2017-12-22T06:35:12.203Z,100937.84
2017-12-22T06:37:38.578Z,100950.24
2017-12-22T06:40:04.905Z,100943.75
2017-12-22T06:42:31.245Z,100942.84
2017-12-22T06:44:57.621Z,100939.74
2017-12-22T06:47:23.949Z,100942.04
2017-12-22T06:49:50.289Z,100942.09
2017-12-22T06:52:16.684Z,100938.22
2017-12-22T06:54:43.030Z,100942.86
2017-12-22T06:57:09.382Z,100944.30
2017-12-22T06:59:35.749Z,100959.14
2017-12-22T07:02:02.094Z,100965.73
2017-12-22T07:04:28.433Z,100949.82
2017-12-22T07:06:54.781Z,100953.80
2017-12-22T07:09:21.110Z,100955.06
2017-12-22T07:11:47.424Z,100941.27
2017-12-22T07:14:13.772Z,100929.67
2017-12-22T07:16:40.085Z,100939.44
2017-12-22T07:19:06.410Z,100942.91
2017-12-22T07:21:32.785Z,100953.43
2017-12-22T07:23:59.125Z,100947.23
2017-12-22T07:26:25.505Z,100948.16
2017-12-22T07:28:51.888Z,100941.30
2017-12-22T07:31:18.237Z,100933.86
2017-12-22T07:33:44.605Z,100928.64
2017-12-22T07:36:10.976Z,100930.58
2017-12-22T07:38:37.301Z,100938.72
2017-12-22T07:41:03.638Z,100939.09
2017-12-22T07:43:30.105Z,100942.72
2017-12-22T07:45:56.449Z,100955.02
2017-12-22T07:48:22.784Z,100957.93
2017-12-22T07:50:49.154Z,100953.20
2017-12-22T07:53:15.498Z,100957.14
2017-12-22T07:55:41.837Z,100954.28
2017-12-22T07:58:08.261Z,100952.25
2017-12-22T08:00:34.594Z,100967.17
2017-12-22T08:03:00.982Z,100961.63
2017-12-22T08:05:27.417Z,100959.36
2017-12-22T08:07:53.754Z,100958.34
2017-12-22T08:10:20.112Z,100950.69
2017-12-22T08:12:46.500Z,100944.08
2017-12-22T08:15:12.877Z,100934.80
2017-12-22T08:17:39.214Z,100937.34
2017-12-22T08:20:05.609Z,100940.96
2017-12-22T08:22:31.986Z,100931.59
2017-12-22T08:24:58.353Z,100926.00
2017-12-22T08:27:25.062Z,100918.08
2017-12-22T08:29:51.610Z,100915.59
2017-12-22T08:32:17.966Z,100919.27
2017-12-22T08:34:44.341Z,100911.00
2017-12-22T08:37:10.685Z,100912.02
2017-12-22T08:39:37.126Z,100919.16
2017-12-22T08:42:03.506Z,100916.13
2017-12-22T08:44:30.009Z,100907.34
2017-12-22T08:46:56.357Z,100903.66
2017-12-22T08:49:22.762Z,100900.58
2017-12-22T08:51:49.153Z,100897.49
2017-12-22T08:54:15.502Z,100891.42
2017-12-22T08:56:42.284Z,100897.79
2017-12-22T08:59:08.812Z,100899.34
2017-12-22T09:01:35.201Z,100904.59
2017-12-22T09:04:01.589Z,100897.23
2017-12-22T09:06:27.946Z,100899.75
2017-12-22T09:08:54.277Z,100890.87
2017-12-22T09:11:20.641Z,100878.69
2017-12-22T09:13:47.045Z,100872.05
2017-12-22T09:16:13.405Z,100872.27
2017-12-22T09:18:39.843Z,100870.06
2017-12-22T09:21:06.218Z,100867.05
2017-12-22T09:23:32.560Z,100869.39
2017-12-22T09:25:58.941Z,100865.83
2017-12-22T09:28:25.288Z,100867.97
2017-12-22T09:30:51.711Z,100863.68
2017-12-22T09:33:18.068Z,100856.22
2017-12-22T09:35:44.405Z,100854.51
2017-12-22T09:38:11.534Z,100836.03
2017-12-22T09:40:37.901Z,100846.06
2017-12-22T09:43:04.246Z,100830.07
2017-12-22T09:45:30.598Z,100818.17
2017-12-22T09:47:57.044Z,100810.46
2017-12-22T09:50:23.396Z,100816.09
2017-12-22T09:52:49.758Z,100824.39
2017-12-22T09:55:16.165Z,100819.78
2017-12-22T09:57:42.513Z,100822.12
2017-12-22T10:00:08.904Z,100814.80
2017-12-22T10:02:35.297Z,100818.28
2017-12-22T10:05:01.665Z,100828.72
2017-12-22T10:07:28.026Z,100823.11
2017-12-22T10:09:54.504Z,100823.55
2017-12-22T10:12:20.864Z,100827.88
2017-12-22T10:14:47.230Z,100819.22
2017-12-22T10:17:13.635Z,100810.53
2017-12-22T10:19:39.979Z,100796.17
2017-12-22T10:22:06.386Z,100782.63
2017-12-22T10:24:32.817Z,100777.86
2017-12-22T10:26:59.178Z,100782.52
2017-12-22T10:29:25.529Z,100778.74
2017-12-22T10:31:51.961Z,100773.59
2017-12-22T10:34:18.334Z,100769.64
2017-12-22T10:36:44.701Z,100764.81
2017-12-22T10:39:11.085Z,100754.95
2017-12-22T10:41:37.465Z,100750.28
2017-12-22T10:44:03.847Z,100753.73
2017-12-22T10:46:30.253Z,100755.08
2017-12-22T10:48:56.674Z,100747.33
2017-12-22T10:51:23.050Z,100745.16
2017-12-22T10:53:49.454Z,100742.09
2017-12-22T10:56:15.793Z,100741.71
2017-12-22T10:58:42.137Z,100733.52
2017-12-22T11:01:08.546Z,100736.98
2017-12-22T11:03:35.141Z,100727.45
2017-12-22T11:06:01.494Z,100730.06
2017-12-22T11:08:27.908Z,100717.09
2017-12-22T11:10:54.286Z,100709.70
2017-12-22T11:13:20.636Z,100695.42
2017-12-22T11:15:47.037Z,100683.75
2017-12-22T11:18:13.428Z,100674.69
2017-12-22T11:20:39.806Z,100665.58
2017-12-22T11:23:06.236Z,100655.63
2017-12-22T11:25:32.601Z,100655.64
2017-12-22T11:27:59.001Z,100656.06
2017-12-22T11:30:25.495Z,100652.62
2017-12-22T11:32:51.877Z,100656.08
2017-12-22T11:35:18.317Z,100654.78
2017-12-22T11:37:44.744Z,100655.59
2017-12-22T11:40:11.125Z,100662.95
2017-12-22T11:42:37.464Z,100659.50
2017-12-22T11:45:03.938Z,100656.06
2017-12-22T11:47:30.274Z,100656.95
2017-12-22T11:49:56.629Z,100651.74
2017-12-22T11:52:23.065Z,100644.41
2017-12-22T11:54:49.517Z,100632.70
2017-12-22T11:57:15.882Z,100627.94
2017-12-22T11:59:42.541Z,100625.77
2017-12-22T12:02:08.949Z,100624.89
2017-12-22T12:04:35.313Z,100626.63
2017-12-22T12:07:01.890Z,100622.33
2017-12-22T12:09:28.276Z,100619.72
2017-12-22T12:11:54.670Z,100611.06
2017-12-22T12:14:21.069Z,100612.36
2017-12-22T12:16:47.416Z,100604.61
2017-12-22T12:19:14.318Z,100598.07
2017-12-22T12:21:41.078Z,100597.69
2017-12-22T12:24:07.513Z,100602.02
2017-12-22T12:26:33.909Z,100593.81
2017-12-22T12:29:01.561Z,100593.33
2017-12-22T12:31:31.199Z,100601.16
2017-12-22T12:33:57.546Z,100598.12
2017-12-22T12:36:23.978Z,100605.48
2017-12-22T12:38:50.340Z,100608.05
2017-12-22T12:41:16.704Z,100603.75
2017-12-22T12:43:43.098Z,100596.84
2017-12-22T12:46:09.462Z,100587.30
2017-12-22T12:48:36.191Z,100574.77
2017-12-22T12:51:02.761Z,100585.53
2017-12-22T12:53:29.145Z,100581.65
2017-12-22T12:55:55.594Z,100584.23
2017-12-22T12:58:22.026Z,100578.11
2017-12-22T13:00:48.389Z,100572.01
2017-12-22T13:03:14.850Z,100575.04
2017-12-22T13:05:41.326Z,100570.71
2017-12-22T13:08:07.665Z,100565.92
2017-12-22T13:10:34.148Z,100560.30
2017-12-22T13:13:00.579Z,100559.05
2017-12-22T13:15:26.924Z,100556.91
2017-12-22T13:17:53.325Z,100550.45
2017-12-22T13:20:19.697Z,100538.81
2017-12-22T13:22:46.201Z,100532.32
2017-12-22T13:25:12.794Z,100544.45
2017-12-22T13:27:39.226Z,100538.45
2017-12-22T13:30:05.613Z,100529.78
2017-12-22T13:32:32.016Z,100515.91
2017-12-22T13:34:58.397Z,100519.25
2017-12-22T13:37:24.770Z,100513.64
2017-12-22T13:39:51.112Z,100507.28
2017-12-22T13:42:17.552Z,100512.45
2017-12-22T13:44:43.909Z,100512.40
2017-12-22T13:47:10.405Z,100510.25
2017-12-22T13:49:36.816Z,100501.12
2017-12-22T13:52:03.229Z,100499.06
2017-12-22T13:54:29.601Z,100499.52
2017-12-22T13:56:56.042Z,100503.38
2017-12-22T13:59:22.381Z,100507.67
2017-12-22T14:01:48.985Z,100505.88
2017-12-22T14:04:15.441Z,100507.15
2017-12-22T14:06:41.818Z,100492.45
2017-12-22T14:09:08.179Z,100490.32
2017-12-22T14:11:34.571Z,100499.01
2017-12-22T14:14:00.928Z,100495.09
2017-12-22T14:16:27.306Z,100489.89
2017-12-22T14:18:53.809Z,100492.53
2017-12-22T14:21:20.184Z,100488.19
2017-12-22T14:23:46.526Z,100493.80
2017-12-22T14:26:12.960Z,100493.36
2017-12-22T14:28:39.334Z,100486.88
2017-12-22T14:31:05.704Z,100483.05
2017-12-22T14:33:32.108Z,100487.80
2017-12-22T14:35:58.497Z,100489.53
2017-12-22T14:38:24.847Z,100484.84
2017-12-22T14:40:51.269Z,100481.80
2017-12-22T14:43:17.630Z,100482.66
2017-12-22T14:45:44.076Z,100483.47
2017-12-22T14:48:10.474Z,100485.59
2017-12-22T14:50:36.836Z,100483.88
2017-12-22T14:53:03.357Z,100479.09
2017-12-22T14:55:29.731Z,100482.14
2017-12-22T14:57:56.086Z,100480.45
2017-12-22T15:00:22.490Z,100468.77
2017-12-22T15:02:48.939Z,100473.65
2017-12-22T15:05:15.305Z,100474.07
2017-12-22T15:07:41.862Z,100472.78
2017-12-22T15:10:08.313Z,100461.09
2017-12-22T15:12:34.698Z,100451.56
2017-12-22T15:15:01.070Z,100456.75
2017-12-22T15:17:27.653Z,100451.14
2017-12-22T15:19:54.026Z,100450.23
2017-12-22T15:22:20.522Z,100449.39
2017-12-22T15:24:46.943Z,100447.16
2017-12-22T15:27:13.302Z,100448.03
2017-12-22T15:29:39.670Z,100444.06
2017-12-22T15:32:06.067Z,100440.60
2017-12-22T15:34:32.497Z,100439.75
2017-12-22T15:36:58.840Z,100435.91
2017-12-22T15:39:25.231Z,100434.58
2017-12-22T15:41:51.598Z,100439.81
2017-12-22T15:44:17.949Z,100440.26
2017-12-22T15:46:44.340Z,100444.16
2017-12-22T15:49:10.815Z,100439.00
2017-12-22T15:51:37.198Z,100426.94
2017-12-22T15:54:03.618Z,100419.61
2017-12-22T15:56:29.966Z,100418.75
2017-12-22T15:58:56.323Z,100430.81
2017-12-22T16:01:22.719Z,100419.99
2017-12-22T16:03:49.081Z,100411.80
2017-12-22T16:06:15.458Z,100413.98
2017-12-22T16:08:41.973Z,100413.48
2017-12-22T16:11:09.346Z,100409.19
2017-12-22T16:13:35.714Z,100412.19
2017-12-22T16:16:02.118Z,100410.44
2017-12-22T16:18:28.461Z,100410.53
2017-12-22T16:20:54.837Z,100403.16
2017-12-22T16:23:21.221Z,100401.42
2017-12-22T16:25:47.570Z,100405.30
2017-12-22T16:28:14.814Z,100413.95
2017-12-22T16:30:41.239Z,100417.41
2017-12-22T16:33:07.591Z,100414.80
2017-12-22T16:35:33.962Z,100418.33
2017-12-22T16:38:00.374Z,100419.21
2017-12-22T16:40:27.673Z,100419.61
2017-12-22T16:42:54.018Z,100427.78
2017-12-22T16:45:20.403Z,100420.77
2017-12-22T16:47:47.018Z,100429.30
2017-12-22T16:50:13.396Z,100425.66
2017-12-22T16:52:39.797Z,100420.48
2017-12-22T16:55:06.232Z,100422.39
2017-12-22T16:57:32.656Z,100424.16
2017-12-22T16:59:59.103Z,100414.27
2017-12-22T17:02:26.333Z,100422.13
2017-12-22T17:04:52.709Z,100408.75
2017-12-22T17:07:19.174Z,100407.94
2017-12-22T17:09:46.959Z,100418.78
2017-12-22T17:12:13.399Z,100420.09
2017-12-22T17:14:39.861Z,100415.34
2017-12-22T17:17:06.266Z,100411.92
2017-12-22T17:19:32.793Z,100409.30
2017-12-22T17:21:59.197Z,100411.87
2017-12-22T17:24:25.687Z,100405.80
2017-12-22T17:26:52.105Z,100407.09
2017-12-22T17:29:18.552Z,100410.17
2017-12-22T17:31:46.421Z,100411.48
2017-12-22T17:34:13.684Z,100411.91
2017-12-22T17:36:41.084Z,100410.61
2017-12-22T17:39:07.475Z,100404.55
2017-12-22T17:41:34.522Z,100409.73
2017-12-22T17:44:00.998Z,100401.52
2017-12-22T17:46:27.468Z,100400.63
2017-12-22T17:48:54.209Z,100402.83
2017-12-22T17:51:20.704Z,100398.05
2017-12-22T17:53:48.050Z,100392.44
2017-12-22T17:56:14.643Z,100393.28
2017-12-22T17:58:41.131Z,100384.66
2017-12-22T18:01:07.624Z,100379.88
2017-12-22T18:03:34.014Z,100376.01
2017-12-22T18:06:00.530Z,100374.70
2017-12-22T18:08:26.875Z,100374.72
2017-12-22T18:10:53.266Z,100375.55
2017-12-22T18:13:19.615Z,100369.95
2017-12-22T18:15:45.973Z,100369.95
2017-12-22T18:18:12.211Z,100361.33
2017-12-22T18:20:38.510Z,100365.67
2017-12-22T18:23:04.830Z,100362.65
2017-12-22T18:25:31.995Z,100353.92
2017-12-22T18:27:58.438Z,100350.89
2017-12-22T18:30:24.874Z,100341.80
2017-12-22T18:32:51.299Z,100343.52
2017-12-22T18:35:17.834Z,100335.31
2017-12-22T18:37:48.018Z,100330.09
2017-12-22T18:40:14.390Z,100322.70
2017-12-22T18:42:41.836Z,100317.55
2017-12-22T18:45:08.239Z,100316.70
2017-12-22T18:47:34.656Z,100315.46
2017-12-22T18:50:01.147Z,100309.86
2017-12-22T18:52:27.558Z,100309.34
2017-12-22T18:54:54.005Z,100305.07
2017-12-22T18:57:20.543Z,100303.75
2017-12-22T18:59:47.112Z,100299.06
2017-12-22T19:02:13.518Z,100292.12
2017-12-22T19:04:40.766Z,100300.72
2017-12-22T19:07:08.131Z,100300.73
2017-12-22T19:09:34.621Z,100303.28
2017-12-22T19:12:01.533Z,100296.81
2017-12-22T19:14:27.946Z,100295.64
2017-12-22T19:16:54.326Z,100290.81
2017-12-22T19:19:22.835Z,100288.98
2017-12-22T19:21:49.299Z,100293.27
2017-12-22T19:24:15.697Z,100287.73
2017-12-22T19:26:42.145Z,100292.97
2017-12-22T19:29:09.077Z,100294.87
2017-12-22T19:31:35.534Z,100300.42
2017-12-22T19:34:01.998Z,100301.34
2017-12-22T19:36:28.439Z,100292.76
2017-12-22T19:38:54.831Z,100294.44
2017-12-22T19:41:22.054Z,100281.95
2017-12-22T19:43:48.526Z,100280.20
2017-12-22T19:46:15.213Z,100274.59
2017-12-22T19:48:41.691Z,100274.59
2017-12-22T19:51:08.472Z,100276.75
2017-12-22T19:53:34.885Z,100274.09
2017-12-22T19:56:01.330Z,100279.31
2017-12-22T19:58:27.747Z,100276.72
2017-12-22T20:00:55.164Z,100270.22
2017-12-22T20:03:26.615Z,100266.75
2017-12-22T20:05:53.026Z,100269.38
2017-12-22T20:08:19.419Z,100269.36
2017-12-22T20:10:45.902Z,100262.05
2017-12-22T20:13:12.398Z,100260.81
2017-12-22T20:15:38.816Z,100274.20
2017-12-22T20:18:05.245Z,100267.70
2017-12-22T20:20:31.715Z,100268.58
2017-12-22T20:22:58.241Z,100262.94
2017-12-22T20:25:25.292Z,100268.59
2017-12-22T20:27:51.693Z,100276.35
2017-12-22T20:30:18.087Z,100275.91
2017-12-22T20:32:44.722Z,100275.02
2017-12-22T20:35:11.534Z,100271.58
2017-12-22T20:37:37.898Z,100273.36
2017-12-22T20:40:04.336Z,100271.17
2017-12-22T20:42:31.658Z,100263.86
2017-12-22T20:44:58.234Z,100269.89
2017-12-22T20:47:24.746Z,100268.16
2017-12-22T20:49:51.154Z,100267.29
2017-12-22T20:52:17.587Z,100259.54
2017-12-22T20:54:44.022Z,100258.22
2017-12-22T20:57:11.069Z,100245.27
2017-12-22T20:59:37.527Z,100250.02
2017-12-22T21:02:03.960Z,100240.53
2017-12-22T21:04:30.469Z,100244.86
2017-12-22T21:06:56.934Z,100251.76
2017-12-22T21:09:23.355Z,100252.18
2017-12-22T21:11:49.742Z,100246.56
2017-12-22T21:14:16.182Z,100244.84
2017-12-22T21:16:42.641Z,100241.84
2017-12-22T21:19:09.047Z,100239.30
2017-12-22T21:21:35.457Z,100232.83
2017-12-22T21:24:01.859Z,100222.45
2017-12-22T21:26:28.266Z,100212.12
2017-12-22T21:28:54.684Z,100200.48
2017-12-22T21:31:21.146Z,100202.21
2017-12-22T21:33:47.488Z,100198.31
2017-12-22T21:36:13.849Z,100205.23
2017-12-22T21:38:40.234Z,100208.67
2017-12-22T21:41:06.613Z,100207.34
2017-12-22T21:43:33.011Z,100198.31
2017-12-22T21:45:59.469Z,100197.03
2017-12-22T21:48:25.833Z,100204.34
2017-12-22T21:50:52.265Z,100206.52
2017-12-22T21:53:18.702Z,100209.96
2017-12-22T21:55:45.107Z,100214.28
2017-12-22T21:58:11.511Z,100219.03
2017-12-22T22:00:37.945Z,100216.43
2017-12-22T22:03:04.353Z,100222.91
2017-12-22T22:05:30.717Z,100220.73
2017-12-22T22:07:57.195Z,100225.48
2017-12-22T22:10:23.580Z,100224.15
2017-12-22T22:12:49.989Z,100236.23
2017-12-22T22:15:16.387Z,100231.95
2017-12-22T22:17:42.802Z,100235.84
2017-12-22T22:20:09.193Z,100228.05
2017-12-22T22:22:35.596Z,100227.18
2017-12-22T22:25:01.994Z,100223.72
2017-12-22T22:27:28.405Z,100222.44
2017-12-22T22:29:54.789Z,100220.64
2017-12-22T22:32:21.177Z,100221.52
2017-12-22T22:34:47.537Z,100212.48
2017-12-22T22:37:13.953Z,100213.81
2017-12-22T22:39:40.333Z,100201.69
2017-12-22T22:42:06.741Z,100198.67
2017-12-22T22:44:33.216Z,100193.47
2017-12-22T22:46:59.608Z,100185.70
2017-12-22T22:49:26.022Z,100181.77
2017-12-22T22:51:52.506Z,100180.02
2017-12-22T22:54:18.869Z,100170.11
2017-12-22T22:56:45.244Z,100165.38
2017-12-22T22:59:11.661Z,100166.59
2017-12-22T23:01:38.069Z,100160.59
2017-12-22T23:04:04.461Z,100170.17
2017-12-22T23:06:30.875Z,100165.77
2017-12-22T23:08:57.241Z,100162.37
2017-12-22T23:11:23.653Z,100171.80
2017-12-22T23:13:50.140Z,100174.50
2017-12-22T23:16:16.486Z,100172.80
2017-12-22T23:18:42.870Z,100167.69
2017-12-22T23:21:09.295Z,100160.73
2017-12-22T23:23:35.680Z,100161.59
2017-12-22T23:26:02.069Z,100162.84
2017-12-22T23:28:28.493Z,100157.28
2017-12-22T23:30:54.886Z,100149.91
2017-12-22T23:33:21.257Z,100142.94
2017-12-22T23:35:47.714Z,100147.22
2017-12-22T23:38:14.096Z,100143.77
2017-12-22T23:40:40.517Z,100137.37
2017-12-22T23:43:06.946Z,100138.66
2017-12-22T23:45:33.381Z,100142.95
2017-12-22T23:47:59.755Z,100145.98
2017-12-22T23:50:26.213Z,100150.66
2017-12-22T23:52:52.621Z,100150.23
2017-12-22T23:55:18.998Z,100149.37
2017-12-22T23:57:45.456Z,100145.01
